ADDS METAR Data INFO
IDs: Format: Raw Decoded Include TAF

Data at: 1248 UTC 19 Oct 2017

KHWV 191156Z AUTO 00000KT 4SM BR CLR 11/10 A3026 RMK AO2 SLP248 T01110100 10139 20100 58000
KHWV 191056Z AUTO 00000KT 7SM CLR 11/10 A3026 RMK AO2 SLP247 T01110100
KHWV 190956Z AUTO 00000KT 6SM BR CLR 11/09 A3027 RMK AO2 SLP249 T01060094
KHWV 190856Z AUTO 00000KT 8SM CLR 11/09 A3026 RMK AO2 SLP248 T01060089 55004
KHWV 190756Z AUTO 00000KT 6SM BR CLR 11/09 A3026 RMK AO2 SLP246 T01110094
KHWV 190656Z AUTO 23004KT 10SM CLR 12/11 A3027 RMK AO2 SLP251 T01220106
KHWV 190556Z AUTO 21003KT 9SM CLR 12/10 A3028 RMK AO2 SLP252 T01170100 10144 20117 56007
KHWV 190456Z AUTO 00000KT 10SM CLR 12/11 A3028 RMK AO2 SLP253 T01220106 402220072
KHWV 190356Z AUTO 00000KT 9SM CLR 12/10 A3029 RMK AO2 SLP256 T01170100
KHWV 190256Z AUTO 00000KT 10SM CLR 12/11 A3030 RMK AO2 SLP259 T01170106 50003
KHWV 190156Z AUTO 00000KT 10SM CLR 12/11 A3030 RMK AO2 SLP260 T01220106
KHWV 190056Z AUTO 00000KT 10SM CLR 14/12 A3029 RMK AO2 SLP258 T01390122
KHWV 182356Z AUTO 00000KT 10SM CLR 14/12 A3029 RMK AO2 SLP256 T01440117 10217 20144 51008
KHWV 182256Z AUTO 20004KT 10SM CLR 16/12 A3028 RMK AO2 SLP255 T01610117
KHWV 182156Z AUTO 21005KT 10SM CLR 18/12 A3027 RMK AO2 SLP251 T01780117
KHWV 182056Z AUTO 19007KT 10SM CLR 19/12 A3027 RMK AO2 SLP249 T01940117 56005
KHWV 181956Z AUTO 19008KT 10SM CLR 20/11 A3027 RMK AO2 SLP249 T02000111
KHWV 181856Z AUTO 20006KT 10SM CLR 22/10 A3027 RMK AO2 SLP250 T02170100
KHWV 181756Z AUTO 18007KT 10SM CLR 22/10 A3028 RMK AO2 SLP253 T02170100 10222 20106 58011
KHWV 181656Z AUTO 00000KT 10SM CLR 22/09 A3030 RMK AO2 SLP260 T02170094
KHWV 181556Z AUTO 00000KT 10SM CLR 21/09 A3032 RMK AO2 SLP266 T02060089
KHWV 181456Z AUTO VRB03KT 10SM CLR 18/08 A3031 RMK AO2 SLP264 T01830083 50002
KHWV 181356Z AUTO 28005KT 10SM CLR 17/07 A3032 RMK AO2 SLP267 T01670072
KHWV 181256Z AUTO 28004KT 10SM CLR 13/06 A3032 RMK AO2 SLP266 T01330061
KHWV 181156Z AUTO 27003KT 10SM CLR 11/06 A3031 RMK AO2 SLP262 T01060061 10106 20072 51008
KHWV 181056Z AUTO 26004KT 10SM CLR 08/04 A3030 RMK AO2 SLP260 T00830044
KHWV 180956Z AUTO 25003KT 10SM CLR 09/04 A3029 RMK AO2 SLP258 T00890044
KHWV 180856Z AUTO 24004KT 10SM CLR 09/04 A3028 RMK AO2 SLP254 T00940044 55000
KHWV 180756Z AUTO 24004KT 10SM CLR 09/05 A3027 RMK AO2 SLP250 T00940050
KHWV 180656Z AUTO 24004KT 10SM CLR 08/06 A3028 RMK AO2 SLP254 T00780056
KHWV 180556Z AUTO 00000KT 10SM CLR 08/06 A3028 RMK AO2 SLP254 T00830056 10111 20061 56006
KHWV 180456Z AUTO 00000KT 10SM CLR 08/06 A3028 RMK AO2 SLP255 T00830056 401560039
KHWV 180356Z AUTO 00000KT 10SM CLR 06/04 A3029 RMK AO2 SLP257 T00610044
KHWV 180256Z AUTO 00000KT 10SM CLR 07/05 A3030 RMK AO2 SLP260 T00720050 51004
KHWV 180156Z AUTO 00000KT 10SM CLR 08/05 A3030 RMK AO2 SLP260 T00780050
KHWV 180056Z AUTO 00000KT 10SM CLR 08/04 A3029 RMK AO2 SLP257 T00830044